createdAt,value
2023-02-11T00:01:07.353Z,103424.09
2023-02-11T00:03:34.955Z,103416.38
2023-02-11T00:06:05.632Z,103408.41
2023-02-11T00:08:33.072Z,103405.75
2023-02-11T00:11:00.634Z,103399.09
2023-02-11T00:13:28.446Z,103399.84
2023-02-11T00:15:56.301Z,103398.31
2023-02-11T00:18:24.129Z,103399.66
2023-02-11T00:20:51.566Z,103383.69
2023-02-11T00:23:18.955Z,103387.09
2023-02-11T00:25:46.715Z,103382.41
2023-02-11T00:28:14.245Z,103385.72
2023-02-11T00:30:41.887Z,103388.88
2023-02-11T00:33:09.457Z,103381.28
2023-02-11T00:35:38.309Z,103388.31
2023-02-11T00:38:05.743Z,103393.56
2023-02-11T00:40:33.190Z,103396.44
2023-02-11T00:43:00.678Z,103384.81
2023-02-11T00:45:28.848Z,103393.94
2023-02-11T00:47:56.295Z,103397.44
2023-02-11T00:50:23.728Z,103402.28
2023-02-11T00:52:51.234Z,103419.91
2023-02-11T00:55:18.737Z,103407.44
2023-02-11T00:57:46.312Z,103409.38
2023-02-11T01:00:14.581Z,103391.63
2023-02-11T01:02:41.980Z,103385.94
2023-02-11T01:05:09.516Z,103391.25
2023-02-11T01:07:36.949Z,103389.41
2023-02-11T01:10:04.894Z,103382.22
2023-02-11T01:12:34.589Z,103375.59
2023-02-11T01:15:03.911Z,103368.63
2023-02-11T01:17:31.362Z,103368.34
2023-02-11T01:19:58.770Z,103361.53
2023-02-11T01:22:26.213Z,103368.16
2023-02-11T01:24:53.668Z,103375.44
2023-02-11T01:27:21.197Z,103376.88
2023-02-11T01:29:48.600Z,103368.16
2023-02-11T01:32:16.077Z,103376.88
2023-02-11T01:34:43.607Z,103373.34
2023-02-11T01:37:11.062Z,103376.75
2023-02-11T01:39:38.564Z,103376.75
2023-02-11T01:42:06.195Z,103387.09
2023-02-11T01:44:33.543Z,103381.75
2023-02-11T01:47:01.772Z,103373.56
2023-02-11T01:49:31.288Z,103375.31
2023-02-11T01:52:01.265Z,103389.53
2023-02-11T01:54:48.431Z,103379.91
2023-02-11T01:57:26.182Z,103366.88
2023-02-11T01:59:53.641Z,103365.66
2023-02-11T02:02:23.449Z,103371.53
2023-02-11T02:04:56.385Z,103372.03
2023-02-11T02:07:35.142Z,103380.75
2023-02-11T02:10:08.600Z,103381.78
2023-02-11T02:12:35.981Z,103379.84
2023-02-11T02:15:21.964Z,103384.13
2023-02-11T02:17:59.302Z,103378.78
2023-02-11T02:20:32.674Z,103376.84
2023-02-11T02:23:08.923Z,103368.13
2023-02-11T02:25:42.128Z,103370.66
2023-02-11T02:28:21.780Z,103374.16
2023-02-11T02:30:55.743Z,103374.06
2023-02-11T02:33:26.337Z,103382.00
2023-02-11T02:36:02.795Z,103379.22
2023-02-11T02:41:53.085Z,103371.44
2023-02-11T02:44:21.418Z,103369.81
2023-02-11T02:46:48.916Z,103369.03
2023-02-11T02:49:17.659Z,103374.03
2023-02-11T02:51:57.443Z,103375.16
2023-02-11T02:54:30.846Z,103367.31
2023-02-11T02:57:16.787Z,103374.97
2023-02-11T03:00:04.605Z,103371.44
2023-02-11T03:02:50.967Z,103378.06
2023-02-11T03:05:22.648Z,103375.38
2023-02-11T03:07:50.027Z,103368.28
2023-02-11T03:10:29.213Z,103372.72
2023-02-11T03:12:57.921Z,103366.47
2023-02-11T03:15:27.096Z,103372.72
2023-02-11T03:17:57.242Z,103364.78
2023-02-11T03:20:24.629Z,103357.94
2023-02-11T03:22:56.661Z,103354.19
2023-02-11T03:25:27.356Z,103354.91
2023-02-11T03:27:58.693Z,103344.94
2023-02-11T03:30:33.534Z,103350.75
2023-02-11T03:33:17.659Z,103348.16
2023-02-11T03:35:55.080Z,103355.22
2023-02-11T03:38:24.371Z,103338.66
2023-02-11T03:40:52.380Z,103335.44
2023-02-11T03:43:22.803Z,103337.38
2023-02-11T03:45:52.721Z,103351.09
2023-02-11T03:48:23.259Z,103348.09
2023-02-11T03:50:51.076Z,103337.22
2023-02-11T03:53:21.507Z,103343.56
2023-02-11T03:55:50.361Z,103336.97
2023-02-11T03:58:18.158Z,103339.47
2023-02-11T04:00:45.938Z,103337.88
2023-02-11T04:03:13.897Z,103332.63
2023-02-11T04:05:41.541Z,103330.75
2023-02-11T04:08:09.084Z,103333.34
2023-02-11T04:10:36.482Z,103342.13
2023-02-11T04:13:03.916Z,103342.53
2023-02-11T04:15:31.381Z,103341.59
2023-02-11T04:17:58.850Z,103341.78
2023-02-11T04:20:26.278Z,103343.03
2023-02-11T04:22:53.692Z,103344.00
2023-02-11T04:25:21.221Z,103342.63
2023-02-11T04:27:48.632Z,103337.75
2023-02-11T04:30:16.077Z,103339.59
2023-02-11T04:32:43.718Z,103341.38
2023-02-11T04:35:11.182Z,103346.00
2023-02-11T04:37:38.624Z,103343.69
2023-02-11T04:40:06.290Z,103354.84
2023-02-11T04:42:33.732Z,103349.00
2023-02-11T04:45:01.833Z,103350.78
2023-02-11T04:47:29.255Z,103356.31
2023-02-11T04:49:56.677Z,103357.44
2023-02-11T04:52:24.149Z,103360.34
2023-02-11T04:54:51.575Z,103359.84
2023-02-11T04:57:18.987Z,103366.78
2023-02-11T04:59:46.408Z,103355.06
2023-02-11T05:02:13.812Z,103361.63
2023-02-11T05:04:41.252Z,103361.78
2023-02-11T05:07:08.655Z,103369.06
2023-02-11T05:09:36.091Z,103376.38
2023-02-11T05:12:03.515Z,103360.50
2023-02-11T05:14:30.985Z,103364.63
2023-02-11T05:16:58.458Z,103364.09
2023-02-11T05:19:25.958Z,103358.94
2023-02-11T05:22:02.563Z,103356.97
2023-02-11T05:24:31.224Z,103360.03
2023-02-11T05:26:58.690Z,103368.91
2023-02-11T05:29:26.125Z,103365.50
2023-02-11T05:31:53.634Z,103367.31
2023-02-11T05:34:21.107Z,103366.94
2023-02-11T05:36:48.534Z,103374.72
2023-02-11T05:39:15.976Z,103363.00
2023-02-11T05:41:43.375Z,103364.88
2023-02-11T05:44:11.128Z,103362.47
2023-02-11T05:46:38.661Z,103356.66
2023-02-11T05:49:06.152Z,103359.78
2023-02-11T05:51:33.549Z,103355.47
2023-02-11T05:54:00.954Z,103355.63
2023-02-11T05:56:28.386Z,103361.59
2023-02-11T05:58:55.847Z,103359.81
2023-02-11T06:01:23.281Z,103366.03
2023-02-11T06:03:51.381Z,103356.44
2023-02-11T06:06:19.033Z,103354.56
2023-02-11T06:08:46.467Z,103366.69
2023-02-11T06:11:15.634Z,103363.63
2023-02-11T06:13:44.089Z,103369.84
2023-02-11T06:16:11.551Z,103373.38
2023-02-11T06:18:38.964Z,103358.47
2023-02-11T06:21:10.384Z,103364.69
2023-02-11T06:23:38.328Z,103364.69
2023-02-11T06:26:06.818Z,103373.06
2023-02-11T06:28:35.830Z,103379.78
2023-02-11T06:31:07.688Z,103375.75
2023-02-11T06:33:35.352Z,103383.03
2023-02-11T06:36:02.900Z,103381.56
2023-02-11T06:38:30.255Z,103377.84
2023-02-11T06:40:57.932Z,103374.00
2023-02-11T06:43:25.404Z,103368.84
2023-02-11T06:45:55.987Z,103368.47
2023-02-11T06:48:24.373Z,103373.47
2023-02-11T06:50:51.796Z,103374.47
2023-02-11T06:53:19.164Z,103378.63
2023-02-11T06:55:46.586Z,103384.19
2023-02-11T06:58:14.081Z,103383.53
2023-02-11T07:00:41.559Z,103376.44
2023-02-11T07:03:09.044Z,103377.41
2023-02-11T07:05:38.563Z,103367.59
2023-02-11T07:08:06.115Z,103371.88
2023-02-11T07:10:34.602Z,103372.03
2023-02-11T07:13:02.080Z,103382.06
2023-02-11T07:15:29.505Z,103387.09
2023-02-11T07:17:56.946Z,103388.13
2023-02-11T07:20:24.403Z,103389.91
2023-02-11T07:22:51.824Z,103397.75
2023-02-11T07:25:19.212Z,103398.56
2023-02-11T07:27:46.618Z,103397.44
2023-02-11T07:30:14.336Z,103390.06
2023-02-11T07:32:41.756Z,103399.09
2023-02-11T07:35:09.212Z,103400.88
2023-02-11T07:37:36.691Z,103412.28
2023-02-11T07:40:04.266Z,103413.41
2023-02-11T07:42:31.692Z,103412.44
2023-02-11T07:44:59.099Z,103417.63
2023-02-11T07:47:26.611Z,103421.00
2023-02-11T07:49:56.562Z,103418.19
2023-02-11T07:52:24.286Z,103421.00
2023-02-11T07:54:51.695Z,103419.97
2023-02-11T07:57:19.177Z,103414.22
2023-02-11T07:59:46.676Z,103409.38
2023-02-11T08:02:14.153Z,103410.50
2023-02-11T08:04:41.553Z,103409.66
2023-02-11T08:07:08.920Z,103411.13
2023-02-11T08:09:36.549Z,103420.69
2023-02-11T08:12:04.052Z,103419.56
2023-02-11T08:14:32.781Z,103417.44
2023-02-11T08:17:00.277Z,103422.59
2023-02-11T08:19:28.143Z,103414.09
2023-02-11T08:21:59.216Z,103427.28
2023-02-11T08:24:26.626Z,103425.66
2023-02-11T08:26:54.047Z,103424.19
2023-02-11T08:29:21.422Z,103417.97
2023-02-11T08:31:49.367Z,103422.56
2023-02-11T08:34:19.012Z,103422.41
2023-02-11T08:36:47.534Z,103424.31
2023-02-11T08:39:19.636Z,103431.59
2023-02-11T08:41:57.887Z,103427.25
2023-02-11T08:44:25.727Z,103436.28
2023-02-11T08:46:53.549Z,103439.03
2023-02-11T08:49:21.352Z,103435.59
2023-02-11T08:51:49.488Z,103448.50
2023-02-11T08:54:16.892Z,103448.34
2023-02-11T08:56:44.654Z,103448.91
2023-02-11T08:59:14.269Z,103444.41
2023-02-11T09:01:41.805Z,103448.22
2023-02-11T09:04:10.979Z,103450.84
2023-02-11T09:06:38.438Z,103461.53
2023-02-11T09:09:05.913Z,103446.81
2023-02-11T09:11:34.701Z,103462.78
2023-02-11T09:14:02.689Z,103458.84
2023-02-11T09:16:31.837Z,103463.69
2023-02-11T09:19:00.115Z,103468.19
2023-02-11T09:21:27.943Z,103467.28
2023-02-11T09:23:55.448Z,103471.88
2023-02-11T09:26:31.162Z,103463.44
2023-02-11T09:28:58.855Z,103472.78
2023-02-11T09:31:27.236Z,103466.69
2023-02-11T09:33:56.285Z,103474.09
2023-02-11T09:36:25.212Z,103472.44
2023-02-11T09:38:52.983Z,103480.59
2023-02-11T09:41:26.931Z,103474.81
2023-02-11T09:43:56.470Z,103477.81
2023-02-11T09:46:25.193Z,103478.22
2023-02-11T09:48:54.183Z,103478.28
2023-02-11T09:51:25.554Z,103486.28
2023-02-11T09:54:00.092Z,103485.94
2023-02-11T09:56:29.288Z,103482.06
2023-02-11T09:58:56.721Z,103478.63
2023-02-11T10:01:24.148Z,103485.16
2023-02-11T10:04:00.884Z,103489.16
2023-02-11T10:06:31.407Z,103501.88
2023-02-11T10:09:17.176Z,103495.47
2023-02-11T10:11:44.563Z,103504.22
2023-02-11T10:14:11.985Z,103511.03
2023-02-11T10:17:01.926Z,103514.59
2023-02-11T10:19:48.033Z,103515.66
2023-02-11T10:22:37.119Z,103518.25
2023-02-11T10:25:16.722Z,103523.84
2023-02-11T10:27:44.273Z,103528.94
2023-02-11T10:30:23.806Z,103524.53
2023-02-11T10:33:09.710Z,103529.16
2023-02-11T10:35:38.895Z,103527.41
2023-02-11T10:38:06.405Z,103527.13
2023-02-11T10:40:33.832Z,103544.06
2023-02-11T10:43:07.015Z,103539.91
2023-02-11T10:45:39.635Z,103543.78
2023-02-11T10:48:27.085Z,103535.94
2023-02-11T10:51:08.436Z,103532.19
2023-02-11T10:53:36.613Z,103526.03
2023-02-11T10:56:04.658Z,103538.63
2023-02-11T10:58:33.479Z,103534.13
2023-02-11T11:01:01.111Z,103519.88
2023-02-11T11:03:30.323Z,103532.88
2023-02-11T11:06:01.474Z,103529.03
2023-02-11T11:08:43.057Z,103514.69
2023-02-11T11:11:13.669Z,103519.78
2023-02-11T11:13:43.569Z,103534.03
2023-02-11T11:16:17.134Z,103529.13
2023-02-11T11:18:49.257Z,103535.78
2023-02-11T11:21:19.429Z,103532.69
2023-02-11T11:23:57.356Z,103540.69
2023-02-11T11:26:25.915Z,103538.72
2023-02-11T11:28:55.976Z,103537.16
2023-02-11T11:31:29.648Z,103537.59
2023-02-11T11:33:58.953Z,103532.63
2023-02-11T11:36:37.677Z,103536.91
2023-02-11T11:39:25.988Z,103530.84
2023-02-11T11:41:58.516Z,103543.91
2023-02-11T11:44:29.082Z,103547.31
2023-02-11T11:47:13.774Z,103552.34
2023-02-11T11:49:50.335Z,103560.31
2023-02-11T11:52:36.662Z,103549.34
2023-02-11T11:55:07.776Z,103558.75
2023-02-11T11:57:38.081Z,103550.88
2023-02-11T12:00:06.029Z,103546.97
2023-02-11T12:02:36.653Z,103542.03
2023-02-11T12:05:04.130Z,103537.13
2023-02-11T12:07:49.416Z,103529.19
2023-02-11T12:10:35.372Z,103532.28
2023-02-11T12:13:08.967Z,103519.66
2023-02-11T12:15:53.971Z,103533.72
2023-02-11T12:18:32.858Z,103531.66
2023-02-11T12:21:00.320Z,103527.47
2023-02-11T12:23:43.145Z,103535.59
2023-02-11T12:26:10.609Z,103533.03
2023-02-11T12:28:50.167Z,103530.53
2023-02-11T12:31:28.674Z,103534.81
2023-02-11T12:34:08.550Z,103545.81
2023-02-11T12:36:45.187Z,103540.50
2023-02-11T12:39:32.841Z,103538.06
2023-02-11T12:42:37.639Z,103530.28
2023-02-11T12:45:13.888Z,103533.13
2023-02-11T12:48:01.894Z,103520.66
2023-02-11T12:50:35.255Z,103522.84
2023-02-11T12:53:05.480Z,103515.06
2023-02-11T12:55:37.077Z,103526.91
2023-02-11T12:58:06.279Z,103519.59
2023-02-11T13:00:42.050Z,103515.75
2023-02-11T13:03:16.899Z,103515.00
2023-02-11T13:05:47.199Z,103504.28
2023-02-11T13:08:20.948Z,103510.38
2023-02-11T13:10:49.864Z,103508.91
2023-02-11T13:13:23.147Z,103505.00
2023-02-11T13:16:16.901Z,103515.22
2023-02-11T13:18:57.440Z,103517.31
2023-02-11T13:21:57.275Z,103505.63
2023-02-11T13:24:45.256Z,103507.41
2023-02-11T13:27:21.406Z,103512.38
2023-02-11T13:30:09.593Z,103501.94
2023-02-11T13:33:03.295Z,103501.44
2023-02-11T13:35:31.982Z,103497.06
2023-02-11T13:38:04.224Z,103494.31
2023-02-11T13:40:39.345Z,103507.00
2023-02-11T13:43:08.221Z,103507.94
2023-02-11T13:45:35.693Z,103504.28
2023-02-11T13:48:05.754Z,103510.56
2023-02-11T13:50:40.660Z,103503.03
2023-02-11T13:53:08.706Z,103509.81
2023-02-11T13:55:36.510Z,103512.41
2023-02-11T13:58:06.979Z,103506.38
2023-02-11T14:00:34.420Z,103502.91
2023-02-11T14:03:27.698Z,103498.53
2023-02-11T14:06:27.722Z,103501.72
2023-02-11T14:09:10.411Z,103500.84
2023-02-11T14:11:46.683Z,103497.59
2023-02-11T14:14:33.508Z,103497.63
2023-02-11T14:17:01.006Z,103506.78
2023-02-11T14:19:31.530Z,103508.97
2023-02-11T14:22:03.484Z,103508.88
2023-02-11T14:24:31.123Z,103511.28
2023-02-11T14:27:20.777Z,103504.50
2023-02-11T14:30:14.939Z,103508.56
2023-02-11T14:33:01.273Z,103509.41
2023-02-11T14:35:31.652Z,103505.84
2023-02-11T14:38:05.001Z,103516.03
2023-02-11T14:40:40.700Z,103513.97
2023-02-11T14:43:29.623Z,103522.72
2023-02-11T14:45:58.547Z,103516.75
2023-02-11T14:48:31.038Z,103517.47
2023-02-11T14:51:16.928Z,103512.94
2023-02-11T14:53:46.213Z,103525.56
2023-02-11T14:56:21.601Z,103520.75
2023-02-11T14:58:51.691Z,103527.50
2023-02-11T15:01:25.801Z,103522.41
2023-02-11T15:03:56.467Z,103530.63
2023-02-11T15:06:32.659Z,103535.84
2023-02-11T15:09:09.018Z,103538.22
2023-02-11T15:11:40.225Z,103540.31
2023-02-11T15:14:11.002Z,103529.19
2023-02-11T15:16:42.399Z,103531.38
2023-02-11T15:19:18.025Z,103543.03
2023-02-11T15:21:46.359Z,103540.88
2023-02-11T15:24:30.039Z,103539.56
2023-02-11T15:26:57.411Z,103546.94
2023-02-11T15:29:25.395Z,103540.41
2023-02-11T15:32:06.992Z,103555.88
2023-02-11T15:34:34.856Z,103552.31
2023-02-11T15:37:03.256Z,103562.63
2023-02-11T15:39:31.333Z,103553.56
2023-02-11T15:42:16.477Z,103560.72
2023-02-11T15:44:43.947Z,103557.88
2023-02-11T15:47:11.960Z,103564.09
2023-02-11T15:49:40.279Z,103564.13
2023-02-11T15:52:08.582Z,103561.25
2023-02-11T15:54:36.067Z,103561.75
2023-02-11T15:57:05.450Z,103561.75
2023-02-11T15:59:38.229Z,103559.09
2023-02-11T16:02:08.599Z,103559.56
2023-02-11T16:04:37.174Z,103562.66
2023-02-11T16:07:05.151Z,103564.44
2023-02-11T16:09:34.247Z,103565.97
2023-02-11T16:12:07.730Z,103560.63
2023-02-11T16:14:37.030Z,103567.63
2023-02-11T16:17:10.346Z,103572.06
2023-02-11T16:19:43.748Z,103577.72
2023-02-11T16:22:12.876Z,103584.31
2023-02-11T16:24:40.572Z,103584.13
2023-02-11T16:27:16.385Z,103583.84
2023-02-11T16:29:46.862Z,103595.22
2023-02-11T16:32:18.794Z,103591.66
2023-02-11T16:34:46.820Z,103599.22
2023-02-11T16:37:14.315Z,103598.22
2023-02-11T16:39:41.959Z,103592.13
2023-02-11T16:42:09.427Z,103593.31
2023-02-11T16:44:36.899Z,103588.66
2023-02-11T16:47:05.920Z,103590.19
2023-02-11T16:49:38.212Z,103594.69
2023-02-11T16:52:14.819Z,103585.22
2023-02-11T16:54:42.438Z,103588.66
2023-02-11T16:57:16.637Z,103591.78
2023-02-11T16:59:44.274Z,103600.19
2023-02-11T17:02:15.323Z,103606.13
2023-02-11T17:04:42.839Z,103607.53
2023-02-11T17:07:10.398Z,103615.22
2023-02-11T17:09:37.805Z,103614.56
2023-02-11T17:12:05.321Z,103627.13
2023-02-11T17:14:32.822Z,103627.38
2023-02-11T17:17:01.585Z,103630.81
2023-02-11T17:19:29.052Z,103635.84
2023-02-11T17:21:56.542Z,103639.53
2023-02-11T17:24:24.088Z,103633.56
2023-02-11T17:26:51.855Z,103637.75
2023-02-11T17:29:21.487Z,103642.97
2023-02-11T17:31:49.229Z,103643.47
2023-02-11T17:34:17.406Z,103639.78
2023-02-11T17:36:44.947Z,103646.66
2023-02-11T17:39:12.420Z,103644.16
2023-02-11T17:41:40.377Z,103646.56
2023-02-11T17:44:09.297Z,103641.66
2023-02-11T17:46:37.260Z,103642.81
2023-02-11T17:49:05.289Z,103643.88
2023-02-11T17:51:34.734Z,103650.53
2023-02-11T17:54:03.142Z,103648.97
2023-02-11T17:56:32.667Z,103650.06
2023-02-11T17:59:02.373Z,103655.72
2023-02-11T18:01:30.263Z,103656.59
2023-02-11T18:03:57.846Z,103657.84
2023-02-11T18:06:25.630Z,103658.44
2023-02-11T18:08:53.167Z,103658.59
2023-02-11T18:11:22.424Z,103657.63
2023-02-11T18:13:54.309Z,103654.38
2023-02-11T18:16:22.474Z,103661.28
2023-02-11T18:18:50.578Z,103656.91
2023-02-11T18:21:20.156Z,103667.13
2023-02-11T18:23:48.235Z,103669.66
2023-02-11T18:26:16.776Z,103667.13
2023-02-11T18:28:45.995Z,103676.44
2023-02-11T18:31:14.618Z,103673.69
2023-02-11T18:33:42.732Z,103680.63
2023-02-11T18:36:11.726Z,103671.16
2023-02-11T18:38:39.580Z,103669.94
2023-02-11T18:41:07.290Z,103675.44
2023-02-11T18:43:35.063Z,103678.28
2023-02-11T18:46:03.840Z,103683.31
2023-02-11T18:48:31.284Z,103685.91
2023-02-11T18:50:58.665Z,103684.94
2023-02-11T18:53:26.059Z,103689.31
2023-02-11T18:55:54.174Z,103692.94
2023-02-11T18:58:22.127Z,103696.22
2023-02-11T19:00:50.297Z,103693.75
2023-02-11T19:03:17.891Z,103701.31
2023-02-11T19:05:46.989Z,103703.16
2023-02-11T19:08:14.838Z,103706.66
2023-02-11T19:10:43.368Z,103702.41
2023-02-11T19:13:10.801Z,103696.06
2023-02-11T19:15:42.261Z,103698.88
2023-02-11T19:18:09.708Z,103704.06
2023-02-11T19:20:39.498Z,103705.00
2023-02-11T19:23:06.886Z,103710.88
2023-02-11T19:25:34.592Z,103704.81
2023-02-11T19:28:03.135Z,103699.16
2023-02-11T19:30:30.884Z,103706.91
2023-02-11T19:32:58.479Z,103715.72
2023-02-11T19:35:26.014Z,103717.28
2023-02-11T19:37:53.432Z,103716.44
2023-02-11T19:40:21.300Z,103716.38
2023-02-11T19:42:48.868Z,103719.78
2023-02-11T19:45:16.527Z,103714.88
2023-02-11T19:47:43.968Z,103720.47
2023-02-11T19:50:11.790Z,103716.06
2023-02-11T19:52:40.138Z,103717.69
2023-02-11T19:55:07.868Z,103721.91
2023-02-11T19:57:35.246Z,103722.88
2023-02-11T20:00:02.679Z,103726.44
2023-02-11T20:02:31.194Z,103725.66
2023-02-11T20:04:58.656Z,103739.47
2023-02-11T20:07:26.099Z,103736.81
2023-02-11T20:09:54.352Z,103743.81
2023-02-11T20:12:21.780Z,103745.56
2023-02-11T20:14:49.262Z,103739.28
2023-02-11T20:17:16.667Z,103744.97
2023-02-11T20:19:44.119Z,103743.66
2023-02-11T20:22:11.573Z,103740.22
2023-02-11T20:24:39.033Z,103747.06
2023-02-11T20:27:08.331Z,103742.81
2023-02-11T20:29:35.924Z,103741.13
2023-02-11T20:32:03.904Z,103749.78
2023-02-11T20:34:31.391Z,103756.78
2023-02-11T20:36:59.364Z,103766.31
2023-02-11T20:39:26.976Z,103769.00
2023-02-11T20:41:54.474Z,103768.03
2023-02-11T20:44:22.860Z,103766.31
2023-02-11T20:46:50.537Z,103772.56
2023-02-11T20:49:20.231Z,103776.88
2023-02-11T20:51:47.992Z,103783.50
2023-02-11T20:54:17.197Z,103781.75
2023-02-11T20:56:48.059Z,103780.25
2023-02-11T20:59:16.690Z,103788.03
2023-02-11T21:01:45.536Z,103790.34
2023-02-11T21:04:14.479Z,103797.31
2023-02-11T21:06:43.321Z,103791.38
2023-02-11T21:09:13.232Z,103802.00
2023-02-11T21:11:40.664Z,103802.81
2023-02-11T21:14:08.117Z,103793.88
2023-02-11T21:16:35.511Z,103799.56
2023-02-11T21:19:03.430Z,103798.50
2023-02-11T21:21:31.456Z,103798.91
2023-02-11T21:23:59.023Z,103808.78
2023-02-11T21:26:27.225Z,103803.59
2023-02-11T21:28:55.180Z,103802.00
2023-02-11T21:31:24.163Z,103805.25
2023-02-11T21:33:53.071Z,103816.75
2023-02-11T21:36:20.504Z,103804.59
2023-02-11T21:38:48.692Z,103812.38
2023-02-11T21:41:16.725Z,103819.25
2023-02-11T21:43:44.265Z,103815.03
2023-02-11T21:46:13.448Z,103821.25
2023-02-11T21:48:40.983Z,103812.03
2023-02-11T21:51:09.922Z,103822.41
2023-02-11T21:53:37.422Z,103827.59
2023-02-11T21:56:23.084Z,103833.41
2023-02-11T21:58:53.219Z,103834.56
2023-02-11T22:01:22.350Z,103829.22
2023-02-11T22:03:50.005Z,103830.81
2023-02-11T22:06:21.259Z,103837.50
2023-02-11T22:08:49.171Z,103831.66
2023-02-11T22:11:16.876Z,103833.56
2023-02-11T22:13:44.372Z,103841.53
2023-02-11T22:16:13.532Z,103840.41
2023-02-11T22:18:41.128Z,103839.13
2023-02-11T22:21:10.966Z,103830.16
2023-02-11T22:23:39.141Z,103834.34
2023-02-11T22:26:10.970Z,103836.06
2023-02-11T22:28:40.113Z,103836.78
2023-02-11T22:31:08.486Z,103845.78
2023-02-11T22:33:35.985Z,103835.38
2023-02-11T22:36:04.733Z,103837.34
2023-02-11T22:38:32.751Z,103840.00
2023-02-11T22:41:01.212Z,103838.97
2023-02-11T22:43:28.864Z,103838.22
2023-02-11T22:45:57.062Z,103837.19
2023-02-11T22:48:24.692Z,103833.94
2023-02-11T22:50:52.263Z,103836.22
2023-02-11T22:53:19.842Z,103842.53
2023-02-11T22:55:47.462Z,103837.34
2023-02-11T22:58:14.956Z,103841.81
2023-02-11T23:00:42.624Z,103840.16
2023-02-11T23:03:11.344Z,103844.31
2023-02-11T23:05:42.199Z,103843.41
2023-02-11T23:08:11.308Z,103844.31
2023-02-11T23:10:39.569Z,103833.78
2023-02-11T23:13:07.703Z,103842.47
2023-02-11T23:15:35.126Z,103838.81
2023-02-11T23:18:02.541Z,103853.81
2023-02-11T23:20:30.023Z,103844.75
2023-02-11T23:22:57.588Z,103847.66
2023-02-11T23:25:25.090Z,103845.84
2023-02-11T23:27:54.971Z,103853.06
2023-02-11T23:30:22.865Z,103855.28
2023-02-11T23:32:50.555Z,103848.44
2023-02-11T23:35:22.170Z,103850.53
2023-02-11T23:37:50.801Z,103860.03
2023-02-11T23:40:18.738Z,103859.88
2023-02-11T23:42:47.642Z,103861.66
2023-02-11T23:45:15.274Z,103860.69
2023-02-11T23:47:42.670Z,103867.75
2023-02-11T23:50:10.647Z,103859.31
2023-02-11T23:52:38.204Z,103858.09
2023-02-11T23:55:06.096Z,103847.88
2023-02-11T23:57:33.870Z,103846.69
